createdAt,value
2019-05-11T00:01:50.035Z,9.57
2019-05-11T00:04:18.655Z,10.33
2019-05-11T00:06:47.058Z,9.90
2019-05-11T00:09:15.539Z,9.60
2019-05-11T00:11:44.011Z,9.30
2019-05-11T00:14:12.498Z,8.97
2019-05-11T00:16:40.978Z,10.03
2019-05-11T00:19:09.586Z,9.57
2019-05-11T00:21:38.063Z,9.87
2019-05-11T00:24:06.565Z,9.77
2019-05-11T00:26:35.102Z,9.17
2019-05-11T00:29:03.591Z,10.90
2019-05-11T00:31:32.084Z,8.70
2019-05-11T00:34:00.623Z,9.27
2019-05-11T00:36:29.038Z,9.20
2019-05-11T00:38:57.522Z,9.37
2019-05-11T00:41:26.058Z,9.40
2019-05-11T00:43:54.536Z,8.83
2019-05-11T00:46:23.476Z,9.50
2019-05-11T00:48:51.950Z,10.20
2019-05-11T00:51:20.445Z,10.07
2019-05-11T00:53:48.917Z,9.63
2019-05-11T00:56:17.462Z,8.40
2019-05-11T00:58:46.112Z,9.93
2019-05-11T01:01:14.590Z,10.93
2019-05-11T01:03:43.276Z,10.93
2019-05-11T01:06:11.762Z,9.43
2019-05-11T01:08:40.586Z,10.00
2019-05-11T01:11:09.059Z,11.00
2019-05-11T01:13:37.610Z,9.53
2019-05-11T01:16:06.164Z,10.80
2019-05-11T01:18:34.710Z,12.07
2019-05-11T01:21:03.194Z,11.20
2019-05-11T01:23:31.759Z,13.07
2019-05-11T01:26:00.244Z,11.13
2019-05-11T01:28:28.794Z,10.77
2019-05-11T01:30:57.218Z,12.93
2019-05-11T01:33:25.774Z,13.00
2019-05-11T01:35:54.257Z,13.80
2019-05-11T01:38:22.745Z,15.40
2019-05-11T01:40:58.634Z,14.43
2019-05-11T01:43:21.374Z,14.23
2019-05-11T01:45:49.964Z,14.57
2019-05-11T01:48:18.538Z,15.27
2019-05-11T01:50:47.110Z,15.70
2019-05-11T01:53:15.733Z,15.60
2019-05-11T01:55:44.298Z,15.50
2019-05-11T01:58:12.911Z,15.87
2019-05-11T02:00:41.449Z,15.10
2019-05-11T02:03:09.933Z,16.03
2019-05-11T02:05:38.484Z,14.33
2019-05-11T02:08:06.944Z,16.20
2019-05-11T02:10:35.442Z,16.73
2019-05-11T02:13:03.920Z,15.67
2019-05-11T02:15:32.471Z,15.77
2019-05-11T02:18:01.146Z,16.17
2019-05-11T02:20:29.523Z,16.17
2019-05-11T02:22:58.068Z,16.57
2019-05-11T02:25:26.545Z,15.60
2019-05-11T02:27:55.098Z,14.63
2019-05-11T02:30:23.644Z,15.87
2019-05-11T02:32:52.138Z,15.67
2019-05-11T02:35:20.634Z,15.47
2019-05-11T02:37:49.103Z,15.13
2019-05-11T02:40:17.766Z,14.77
2019-05-11T02:42:46.243Z,14.60
2019-05-11T02:45:17.619Z,14.93
2019-05-11T02:47:46.031Z,14.53
2019-05-11T02:50:14.511Z,14.47
2019-05-11T02:52:43.071Z,14.43
2019-05-11T02:55:11.557Z,14.20
2019-05-11T02:57:40.049Z,14.17
2019-05-11T03:00:09.024Z,14.10
2019-05-11T03:02:37.511Z,13.70
2019-05-11T03:05:07.627Z,13.13
2019-05-11T03:07:36.171Z,14.43
2019-05-11T03:10:05.126Z,13.57
2019-05-11T03:12:33.614Z,11.47
2019-05-11T03:15:02.090Z,13.50
2019-05-11T03:17:32.140Z,17.83
2019-05-11T03:20:00.622Z,16.13
2019-05-11T03:22:29.163Z,16.60
2019-05-11T03:24:57.721Z,15.43
2019-05-11T03:27:26.237Z,14.90
2019-05-11T03:29:54.861Z,18.70
2019-05-11T03:32:23.440Z,17.60
2019-05-11T03:34:51.930Z,20.57
2019-05-11T03:37:20.461Z,20.73
2019-05-11T03:39:48.952Z,20.53
2019-05-11T03:42:17.420Z,16.20
2019-05-11T03:44:45.979Z,20.00
2019-05-11T03:47:14.526Z,18.63
2019-05-11T03:49:43.019Z,15.53
2019-05-11T03:52:11.562Z,17.50
2019-05-11T03:54:40.038Z,21.40
2019-05-11T03:57:08.517Z,21.47
2019-05-11T03:59:37.076Z,19.80
2019-05-11T04:02:05.486Z,20.37
2019-05-11T04:04:33.910Z,22.83
2019-05-11T04:07:02.455Z,19.40
2019-05-11T04:09:30.950Z,19.33
2019-05-11T04:11:59.444Z,16.83
2019-05-11T04:14:27.992Z,14.70
2019-05-11T04:16:56.406Z,24.20
2019-05-11T04:19:24.888Z,18.40
2019-05-11T04:21:53.430Z,15.57
2019-05-11T04:24:21.915Z,19.80
2019-05-11T04:26:50.433Z,19.90
2019-05-11T04:29:18.987Z,21.67
2019-05-11T04:31:47.532Z,14.80
2019-05-11T04:34:16.078Z,17.07
2019-05-11T04:36:44.630Z,17.40
2019-05-11T04:39:13.188Z,17.87
2019-05-11T04:41:41.668Z,18.53
2019-05-11T04:44:10.374Z,18.00
2019-05-11T04:46:38.787Z,16.33
2019-05-11T04:49:07.274Z,16.73
2019-05-11T04:51:35.898Z,17.50
2019-05-11T04:54:04.378Z,17.53
2019-05-11T04:56:33.075Z,18.17
2019-05-11T04:59:01.608Z,16.97
2019-05-11T05:01:30.106Z,18.53
2019-05-11T05:04:13.307Z,15.37
2019-05-11T05:06:28.709Z,14.43
2019-05-11T05:08:58.105Z,13.93
2019-05-11T05:11:30.724Z,13.40
2019-05-11T05:14:02.273Z,18.40
2019-05-11T05:16:31.192Z,13.50
2019-05-11T05:18:57.772Z,12.40
2019-05-11T05:21:26.311Z,13.40
2019-05-11T05:23:54.722Z,11.33
2019-05-11T05:26:23.274Z,13.37
2019-05-11T05:28:51.808Z,13.27
2019-05-11T05:31:20.362Z,13.23
2019-05-11T05:33:48.924Z,13.03
2019-05-11T05:36:17.467Z,10.87
2019-05-11T05:38:45.891Z,11.80
2019-05-11T05:41:14.418Z,12.10
2019-05-11T05:43:43.003Z,16.40
2019-05-11T05:46:11.515Z,12.40
2019-05-11T05:48:39.966Z,12.20
2019-05-11T05:51:08.565Z,13.13
2019-05-11T05:53:37.058Z,13.47
2019-05-11T05:56:05.540Z,11.30
2019-05-11T05:58:34.244Z,13.87
2019-05-11T06:01:02.709Z,12.87
2019-05-11T06:03:31.140Z,12.27
2019-05-11T06:05:59.602Z,12.53
2019-05-11T06:08:28.098Z,12.83
2019-05-11T06:10:56.727Z,12.80
2019-05-11T06:13:25.267Z,12.50
2019-05-11T06:15:53.763Z,12.03
2019-05-11T06:18:22.339Z,10.97
2019-05-11T06:20:50.886Z,10.67
2019-05-11T06:23:21.462Z,11.27
2019-05-11T06:25:49.920Z,9.97
2019-05-11T06:28:18.638Z,11.03
2019-05-11T06:30:47.134Z,9.77
2019-05-11T06:33:15.800Z,10.13
2019-05-11T06:35:44.410Z,10.03
2019-05-11T06:38:12.908Z,9.33
2019-05-11T06:40:41.308Z,9.30
2019-05-11T06:43:09.914Z,9.40
2019-05-11T06:45:38.536Z,8.67
2019-05-11T06:48:07.483Z,10.57
2019-05-11T06:50:39.120Z,8.80
2019-05-11T06:53:07.534Z,8.50
2019-05-11T06:55:36.011Z,8.97
2019-05-11T06:58:04.644Z,8.07
2019-05-11T07:00:33.190Z,8.90
2019-05-11T07:03:01.890Z,8.33
2019-05-11T07:05:30.464Z,8.70
2019-05-11T07:07:59.028Z,7.67
2019-05-11T07:10:27.549Z,8.20
2019-05-11T07:12:56.080Z,97.87
2019-05-11T07:15:24.565Z,90.47
2019-05-11T07:17:53.074Z,91.77
2019-05-11T07:20:21.549Z,92.00
2019-05-11T07:22:50.045Z,95.60
2019-05-11T07:25:18.309Z,90.33
2019-05-11T07:27:46.854Z,95.27
2019-05-11T07:30:15.432Z,93.73
2019-05-11T07:32:43.986Z,94.17
2019-05-11T07:35:12.614Z,95.30
2019-05-11T07:37:41.266Z,96.90
2019-05-11T07:40:09.826Z,95.90
2019-05-11T07:42:38.483Z,95.27
2019-05-11T07:45:09.077Z,97.47
2019-05-11T07:47:38.157Z,95.53
2019-05-11T07:50:08.344Z,94.97
2019-05-11T07:52:37.835Z,95.23
2019-05-11T07:55:08.582Z,95.87
2019-05-11T07:57:39.083Z,95.07
2019-05-11T08:00:08.134Z,95.93
2019-05-11T08:02:38.653Z,94.10
2019-05-11T08:05:08.661Z,95.57
2019-05-11T08:07:37.896Z,94.70
2019-05-11T08:10:08.298Z,94.33
2019-05-11T08:12:39.037Z,95.33
2019-05-11T08:15:12.408Z,97.70
2019-05-11T08:17:38.077Z,101.20
2019-05-11T08:20:08.443Z,102.10
2019-05-11T08:22:37.725Z,105.20
2019-05-11T08:25:09.019Z,102.83
2019-05-11T08:27:37.850Z,100.03
2019-05-11T08:30:10.880Z,99.50
2019-05-11T08:32:39.432Z,91.97
2019-05-11T08:35:08.642Z,9.03
2019-05-11T08:37:38.768Z,7.73
2019-05-11T08:40:07.930Z,6.73
2019-05-11T08:42:37.857Z,6.87
2019-05-11T08:45:19.559Z,6.43
2019-05-11T08:47:37.790Z,5.27
2019-05-11T08:50:08.022Z,4.43
2019-05-11T08:52:38.673Z,5.63
2019-05-11T08:55:08.414Z,6.83
2019-05-11T08:57:38.791Z,4.93
2019-05-11T09:00:08.513Z,4.73
2019-05-11T09:02:38.363Z,4.30
2019-05-11T09:05:08.185Z,4.30
2019-05-11T09:07:38.445Z,6.40
2019-05-11T09:12:38.038Z,5.17
2019-05-11T09:15:08.558Z,5.80
2019-05-11T09:17:38.196Z,4.80
2019-05-11T09:20:08.810Z,3.40
2019-05-11T09:22:38.118Z,4.40
2019-05-11T09:25:08.846Z,4.47
2019-05-11T09:27:37.829Z,5.03
2019-05-11T09:30:08.432Z,4.10
2019-05-11T09:32:38.532Z,4.80
2019-05-11T09:35:08.282Z,4.13
2019-05-11T09:37:38.089Z,5.40
2019-05-11T09:40:07.872Z,5.17
2019-05-11T09:42:38.839Z,4.50
2019-05-11T09:45:08.017Z,4.57
2019-05-11T09:47:38.711Z,3.37
2019-05-11T09:50:08.572Z,4.27
2019-05-11T09:52:38.535Z,3.87
2019-05-11T09:55:08.709Z,3.57
2019-05-11T09:57:38.225Z,4.10
2019-05-11T10:00:08.883Z,4.17
2019-05-11T10:02:38.544Z,4.30
2019-05-11T10:05:08.392Z,4.63
2019-05-11T10:07:38.026Z,4.37
2019-05-11T10:10:09.207Z,6.30
2019-05-11T10:12:37.978Z,4.60
2019-05-11T10:15:08.733Z,4.77
2019-05-11T10:17:38.211Z,4.60
2019-05-11T10:20:09.260Z,5.47
2019-05-11T10:22:38.426Z,4.60
2019-05-11T10:25:08.975Z,3.73
2019-05-11T10:27:38.430Z,4.00
2019-05-11T10:30:08.306Z,5.73
2019-05-11T10:32:37.894Z,5.23
2019-05-11T10:35:07.987Z,4.50
2019-05-11T10:37:38.921Z,5.57
2019-05-11T10:40:09.325Z,5.30
2019-05-11T10:42:37.880Z,88.70
2019-05-11T10:45:09.032Z,97.70
2019-05-11T10:47:38.298Z,99.43
2019-05-11T10:50:08.559Z,99.83
2019-05-11T10:52:38.020Z,104.87
2019-05-11T10:55:08.655Z,103.20
2019-05-11T10:57:38.728Z,102.27
2019-05-11T11:00:09.890Z,102.00
2019-05-11T11:02:38.602Z,99.87
2019-05-11T11:05:08.070Z,102.27
2019-05-11T11:07:38.328Z,100.50
2019-05-11T11:10:08.812Z,101.37
2019-05-11T11:12:38.461Z,99.40
2019-05-11T11:15:07.939Z,108.17
2019-05-11T11:17:38.175Z,65.90
2019-05-11T11:20:08.770Z,11.73
2019-05-11T11:22:42.955Z,80.10
2019-05-11T11:25:07.903Z,55.37
2019-05-11T11:27:38.112Z,5.73
2019-05-11T11:30:09.279Z,4.07
2019-05-11T11:32:38.570Z,21.47
2019-05-11T11:35:08.498Z,6.73
2019-05-11T11:37:38.650Z,4.40
2019-05-11T11:40:09.142Z,8.63
2019-05-11T11:42:37.842Z,7.97
2019-05-11T11:45:09.468Z,5.00
2019-05-11T11:47:38.544Z,4.90
2019-05-11T11:50:09.083Z,5.00
2019-05-11T11:52:38.405Z,4.57
2019-05-11T11:55:10.430Z,4.93
2019-05-11T11:57:39.123Z,4.67
2019-05-11T12:00:09.182Z,4.63
2019-05-11T12:02:38.810Z,4.67
2019-05-11T12:05:08.862Z,6.50
2019-05-11T12:07:38.689Z,11.10
2019-05-11T12:10:08.098Z,10.97
2019-05-11T12:12:38.443Z,6.17
2019-05-11T12:15:08.658Z,16.97
2019-05-11T12:17:37.656Z,4.90
2019-05-11T12:20:08.987Z,4.13
2019-05-11T12:22:38.650Z,4.57
2019-05-11T12:25:07.961Z,4.17
2019-05-11T12:27:38.409Z,4.13
2019-05-11T12:30:09.088Z,15.13
2019-05-11T12:32:45.458Z,3.07
2019-05-11T12:35:13.946Z,3.47
2019-05-11T12:37:42.432Z,4.73
2019-05-11T12:40:12.769Z,3.40
2019-05-11T12:42:41.627Z,3.70
2019-05-11T12:45:10.247Z,4.70
2019-05-11T12:47:38.782Z,3.17
2019-05-11T12:50:08.513Z,3.83
2019-05-11T12:52:38.325Z,3.33
2019-05-11T12:55:08.820Z,3.70
2019-05-11T12:57:38.627Z,3.67
2019-05-11T13:00:08.886Z,4.37
2019-05-11T13:02:38.835Z,3.93
2019-05-11T13:05:08.615Z,3.17
2019-05-11T13:07:39.192Z,4.07
2019-05-11T13:10:08.385Z,4.50
2019-05-11T13:12:38.552Z,4.20
2019-05-11T13:15:08.290Z,3.33
2019-05-11T13:17:38.372Z,3.43
2019-05-11T13:20:08.684Z,3.50
2019-05-11T13:22:38.196Z,3.47
2019-05-11T13:25:08.560Z,4.00
2019-05-11T13:27:38.695Z,2.53
2019-05-11T13:30:08.061Z,3.70
2019-05-11T13:32:38.422Z,2.80
2019-05-11T13:35:09.104Z,2.70
2019-05-11T13:37:38.645Z,2.83
2019-05-11T13:40:09.075Z,3.62
2019-05-11T13:42:38.589Z,3.20
2019-05-11T13:45:08.523Z,3.30
2019-05-11T13:47:50.915Z,2.93
2019-05-11T13:50:07.831Z,2.83
2019-05-11T13:52:38.400Z,3.40
2019-05-11T13:55:07.768Z,3.40
2019-05-11T13:57:38.065Z,4.43
2019-05-11T14:00:09.024Z,4.28
2019-05-11T14:02:38.071Z,3.63
2019-05-11T14:05:08.720Z,2.07
2019-05-11T14:07:38.103Z,3.23
2019-05-11T14:10:08.193Z,3.33
2019-05-11T14:12:38.508Z,4.20
2019-05-11T14:15:10.480Z,5.10
2019-05-11T14:17:39.093Z,5.03
2019-05-11T14:20:08.991Z,4.80
2019-05-11T14:22:38.858Z,5.87
2019-05-11T14:25:08.046Z,4.57
2019-05-11T14:27:39.056Z,4.17
2019-05-11T14:30:08.644Z,4.37
2019-05-11T14:32:38.823Z,6.70
2019-05-11T14:35:11.964Z,7.63
2019-05-11T14:37:38.248Z,7.25
2019-05-11T14:40:09.088Z,7.13
2019-05-11T14:42:38.344Z,6.90
2019-05-11T14:45:08.432Z,7.17
2019-05-11T14:47:38.606Z,6.78
2019-05-11T14:50:08.652Z,9.33
2019-05-11T14:52:38.835Z,7.73
2019-05-11T14:55:08.293Z,6.55
2019-05-11T14:57:39.644Z,6.07
2019-05-11T15:00:08.517Z,6.83
2019-05-11T15:02:48.889Z,8.33
2019-05-11T15:05:20.146Z,8.73
2019-05-11T15:07:52.001Z,8.00
2019-05-11T15:10:18.991Z,9.63
2019-05-11T15:12:48.929Z,6.67
2019-05-11T15:15:18.670Z,7.73
2019-05-11T15:17:49.386Z,7.33
2019-05-11T15:20:17.905Z,6.70
2019-05-11T15:22:48.616Z,7.43
2019-05-11T15:25:19.317Z,6.93
2019-05-11T15:27:48.813Z,7.83
2019-05-11T15:30:18.230Z,6.83
2019-05-11T15:32:48.254Z,6.20
2019-05-11T15:35:18.627Z,6.93
2019-05-11T15:37:48.187Z,7.27
2019-05-11T15:40:18.729Z,6.13
2019-05-11T15:42:48.558Z,7.13
2019-05-11T15:45:18.681Z,8.00
2019-05-11T15:47:48.733Z,6.27
2019-05-11T15:50:19.000Z,6.27
2019-05-11T15:52:48.820Z,5.87
2019-05-11T15:55:18.869Z,5.80
2019-05-11T15:57:48.387Z,7.03
2019-05-11T16:00:17.185Z,5.47
2019-05-11T16:02:48.697Z,6.47
2019-05-11T16:05:18.332Z,6.37
2019-05-11T16:07:46.041Z,6.83
2019-05-11T16:10:14.582Z,6.50
2019-05-11T16:12:43.168Z,5.27
2019-05-11T16:15:11.718Z,6.70
2019-05-11T16:17:40.487Z,6.40
2019-05-11T16:20:09.659Z,6.60
2019-05-11T16:22:38.613Z,5.73
2019-05-11T16:25:08.778Z,6.07
2019-05-11T16:27:38.169Z,5.80
2019-05-11T16:30:10.849Z,6.07
2019-05-11T16:32:39.411Z,4.97
2019-05-11T16:35:08.973Z,5.93
2019-05-11T16:37:38.051Z,4.40
2019-05-11T16:40:09.673Z,5.20
2019-05-11T16:42:38.788Z,5.13
2019-05-11T16:45:08.484Z,5.30
2019-05-11T16:47:39.086Z,5.07
2019-05-11T16:50:10.097Z,6.27
2019-05-11T16:52:38.792Z,3.80
2019-05-11T16:55:08.911Z,5.20
2019-05-11T16:57:38.194Z,5.20
2019-05-11T17:00:08.802Z,4.70
2019-05-11T17:02:38.269Z,4.70
2019-05-11T17:05:07.926Z,5.17
2019-05-11T17:07:37.667Z,4.37
2019-05-11T17:10:08.510Z,5.67
2019-05-11T17:12:38.562Z,5.57
2019-05-11T17:15:11.736Z,5.70
2019-05-11T17:17:40.678Z,6.10
2019-05-11T17:20:09.235Z,6.77
2019-05-11T17:22:38.901Z,6.50
2019-05-11T17:25:08.577Z,6.00
2019-05-11T17:27:37.775Z,6.13
2019-05-11T17:30:08.597Z,4.80
2019-05-11T17:32:38.333Z,6.27
2019-05-11T17:35:08.447Z,5.17
2019-05-11T17:37:38.125Z,8.57
2019-05-11T17:40:09.019Z,8.47
2019-05-11T17:42:37.932Z,6.53
2019-05-11T17:45:09.656Z,6.33
2019-05-11T17:47:38.834Z,6.07
2019-05-11T17:50:08.086Z,5.07
2019-05-11T17:52:38.432Z,6.03
2019-05-11T17:55:09.285Z,5.90
2019-05-11T17:57:38.304Z,5.97
2019-05-11T18:00:07.765Z,5.60
2019-05-11T18:02:38.737Z,6.03
2019-05-11T18:05:08.827Z,5.87
2019-05-11T18:07:38.529Z,5.77
2019-05-11T18:10:08.211Z,5.07
2019-05-11T18:12:39.151Z,5.33
2019-05-11T18:15:08.317Z,5.77
2019-05-11T18:17:37.004Z,5.77
2019-05-11T18:20:17.341Z,6.10
2019-05-11T18:22:39.031Z,6.20
2019-05-11T18:25:08.785Z,7.33
2019-05-11T18:27:38.659Z,7.70
2019-05-11T18:30:09.062Z,8.83
2019-05-11T18:32:39.381Z,9.90
2019-05-11T18:35:08.462Z,9.93
2019-05-11T18:37:38.893Z,9.70
2019-05-11T18:40:07.465Z,9.87
2019-05-11T18:42:38.084Z,8.50
2019-05-11T18:45:08.370Z,7.10
2019-05-11T18:47:38.214Z,7.70
2019-05-11T18:50:07.905Z,7.03
2019-05-11T18:52:36.593Z,6.30
2019-05-11T18:55:08.197Z,183.50
2019-05-11T18:57:38.205Z,104.67
2019-05-11T19:00:08.425Z,103.27
2019-05-11T19:02:38.514Z,103.80
2019-05-11T19:05:07.378Z,102.83
2019-05-11T19:07:35.960Z,103.30
2019-05-11T19:10:08.268Z,105.47
2019-05-11T19:12:37.690Z,112.47
2019-05-11T19:15:10.481Z,102.70
2019-05-11T19:17:39.052Z,109.47
2019-05-11T19:20:08.589Z,110.43
2019-05-11T19:22:38.267Z,115.07
2019-05-11T19:25:08.982Z,106.53
2019-05-11T19:27:37.980Z,123.60
2019-05-11T19:30:08.224Z,111.30
2019-05-11T19:32:38.331Z,113.10
2019-05-11T19:35:08.943Z,104.50
2019-05-11T19:37:41.691Z,114.40
2019-05-11T19:40:10.315Z,104.97
2019-05-11T19:42:53.738Z,106.87
2019-05-11T19:45:22.649Z,111.43
2019-05-11T19:47:51.318Z,110.63
2019-05-11T19:50:19.981Z,107.43
2019-05-11T19:52:48.687Z,114.43
2019-05-11T19:55:18.000Z,108.27
2019-05-11T19:57:48.291Z,111.40
2019-05-11T20:00:18.507Z,179.43
2019-05-11T20:02:47.437Z,103.77
2019-05-11T20:05:18.149Z,109.70
2019-05-11T20:07:48.653Z,111.73
2019-05-11T20:10:18.832Z,104.20
2019-05-11T20:12:48.285Z,105.53
2019-05-11T20:15:18.857Z,111.27
2019-05-11T20:17:48.631Z,109.23
2019-05-11T20:20:18.367Z,106.03
2019-05-11T20:22:48.254Z,102.87
2019-05-11T20:25:18.692Z,102.53
2019-05-11T20:27:48.439Z,119.53
2019-05-11T20:30:18.439Z,109.47
2019-05-11T20:32:48.495Z,104.63
2019-05-11T20:35:17.590Z,103.77
2019-05-11T20:37:46.164Z,106.40
2019-05-11T20:40:14.777Z,113.23
2019-05-11T20:42:43.802Z,108.70
2019-05-11T20:45:14.413Z,101.20
2019-05-11T20:47:43.201Z,103.57
2019-05-11T20:50:11.758Z,102.87
2019-05-11T20:52:42.008Z,102.07
2019-05-11T20:55:10.600Z,104.70
2019-05-11T20:57:39.704Z,103.37
2019-05-11T21:00:11.238Z,102.80
2019-05-11T21:02:40.587Z,103.60
2019-05-11T21:05:09.678Z,102.77
2019-05-11T21:07:39.086Z,103.40
2019-05-11T21:10:09.032Z,102.37
2019-05-11T21:12:38.582Z,101.47
2019-05-11T21:15:08.354Z,101.07
2019-05-11T21:17:36.924Z,103.27
2019-05-11T21:20:07.924Z,99.73
2019-05-11T21:22:40.151Z,102.63
2019-05-11T21:25:09.377Z,100.37
2019-05-11T21:27:38.582Z,102.77
2019-05-11T21:30:10.536Z,102.40
2019-05-11T21:32:40.031Z,99.80
2019-05-11T21:35:09.149Z,98.90
2019-05-11T21:37:38.678Z,99.70
2019-05-11T21:40:09.119Z,98.00
2019-05-11T21:42:38.893Z,97.03
2019-05-11T21:45:09.995Z,97.07
2019-05-11T21:47:39.496Z,95.97
2019-05-11T21:50:09.162Z,99.13
2019-05-11T21:52:38.628Z,98.60
2019-05-11T21:55:09.303Z,97.70
2019-05-11T21:57:38.132Z,98.33
2019-05-11T22:00:10.207Z,101.47
2019-05-11T22:02:39.058Z,97.90
2019-05-11T22:05:08.240Z,98.90
2019-05-11T22:07:41.386Z,99.07
2019-05-11T22:10:09.994Z,96.47
2019-05-11T22:12:39.210Z,98.83
2019-05-11T22:15:09.813Z,101.77
2019-05-11T22:17:39.607Z,97.23
2019-05-11T22:20:09.025Z,98.80
2019-05-11T22:22:38.878Z,97.23
2019-05-11T22:25:08.450Z,97.30
2019-05-11T22:27:38.770Z,97.93
2019-05-11T22:30:08.761Z,97.33
2019-05-11T22:32:38.390Z,95.93
2019-05-11T22:35:09.007Z,94.93
2019-05-11T22:37:38.693Z,95.30
2019-05-11T22:40:08.446Z,94.27
2019-05-11T22:42:37.326Z,93.80
2019-05-11T22:45:09.463Z,95.50
2019-05-11T22:47:39.233Z,94.37
2019-05-11T22:50:11.342Z,94.23
2019-05-11T22:52:40.739Z,94.43
2019-05-11T22:55:11.947Z,93.90
2019-05-11T22:57:39.716Z,93.83
2019-05-11T23:00:11.896Z,94.90
2019-05-11T23:02:40.511Z,95.20
2019-05-11T23:05:09.349Z,94.10
2019-05-11T23:07:41.267Z,94.27
2019-05-11T23:10:10.025Z,94.77
2019-05-11T23:12:38.743Z,94.53
2019-05-11T23:15:12.266Z,91.40
2019-05-11T23:17:40.950Z,93.67
2019-05-11T23:20:10.801Z,94.07
2019-05-11T23:22:56.820Z,93.57
2019-05-11T23:25:18.601Z,93.03
2019-05-11T23:27:48.558Z,94.87
2019-05-11T23:30:19.758Z,93.13
2019-05-11T23:32:48.486Z,93.43
2019-05-11T23:35:20.334Z,93.10
2019-05-11T23:37:49.790Z,93.93
2019-05-11T23:40:19.320Z,94.00
2019-05-11T23:42:48.988Z,93.37
2019-05-11T23:45:18.901Z,93.50
2019-05-11T23:47:48.603Z,93.33
2019-05-11T23:50:18.991Z,93.03
2019-05-11T23:52:50.185Z,95.53
2019-05-11T23:55:18.986Z,92.70
2019-05-11T23:57:48.689Z,91.97
